Tyrone, NY (14887)

3:04 PM EDT on July 06, 2015 (GMT -0400)
FingerLakes | | Change Station
CLOSE
Current Station
Personal Weather Station
Location: Waneta Lake, NY
Elevation: 1099 ft
Nearby Weather Stations

Elev 1099 ft 42.46 °N, 77.10 °W | Updated 21 seconds ago

Overcast
Overcast
78.5 °F
Feels Like 81 °F
N
0.0
Wind Variable Wind from SW
Gusts 0.0 mph

Today
High -- | Low -- °F
--% Chance of Precip.
Yesterday
High -- | Low -- °F
Precip. -- in
5:37 AM 8:47 PM
Waning Gibbous, 73% visible
Pressure 30.07 in
Visibility 8.0 miles
Clouds Mostly Cloudy 2900 ft
Mostly Cloudy 3600 ft
Heat Index 81 °F
Dew Point 70 °F
Humidity 74%
Rainfall 0.00 in
Snow Depth Not available.
UV 5 out of 12
Pollen 4.30 out of 12
Air Quality Not available.
Flu Activity Not available.
METAR KPEO 061853Z AUTO 14008KT 8SM BKN029 BKN036 27/20 A3009 RMK AO2 SLP182 T02670200

More Conditions Fewer Conditions

Pressure 30.07 in
Visibility 8.0 miles
Clouds Mostly Cloudy 2900 ft
Mostly Cloudy 3600 ft
Heat Index 81 °F
Dew Point 70 °F
Humidity 74%
Rainfall 0.00 in
Snow Depth Not available.
UV 5 out of 12
Pollen 4.30 out of 12
Air Quality Not available.
Flu Activity Not available.
METAR KPEO 061853Z AUTO 14008KT 8SM BKN029 BKN036 27/20 A3009 RMK AO2 SLP182 T02670200

More Conditions Fewer Conditions

Nowcast | as of 2:06 PM EDT on July 6, 2015

Scattered showers and isolated thunderstorms will move across the area through 5 PM. General rainfall rates will be .10-.20 inches an hour. A thunderstorm could produce .50 to 1.00 inches in an hour.

×

10-Day Weather Forecast

×

Almanac

Astronomy

Jul. 06, 2015 Rise Set
Actual Time
Civil Twilight
Nautical Twilight
Astronomical Twilight
Moon
Length of Visible Light
Length of Day
Tomorrow will be .
, % of the Moon is Illuminated

Today's Extremes

State Highs State Lows

Community

WunderPhotos

Upload Photos

1,835,616 photos uploaded!

WunderBlogs® & News

Nearby

Air Quality

  Air Quality AQ Index Pollutant
Not available.

Snow Depth

Station Depth Elevation

Earthquake Activity

City Distance Mag. Time & Date
Minimum magnitude displayed is 2.5.

Coastal Water Temperatures

Place Temperature

Stations

Nearby Weather Stations

Station Location Temp. Windchill Dew Point Humidity Wind Precip. Elev Updated Type